Time;durP1;ratioP1;P1;durP2;ratioP2;P2;SDS_P1;SDS_P2;PMS_P1;PMS_P2;Temp;Humidity;BMP_temperature;BMP_pressure;BME280_temperature;BME280_humidity;BME280_pressure;Samples;Min_cycle;Max_cycle;Signal;HPM_P1;HPM_P2
2023/07/30 00:04:35;;;;;;;9.57;7.32;;;;;;;18.15;74.68;100411.81;15480508;28;20058;-48
2023/07/30 00:12:15;;;;;;;8.88;6.70;;;;;;;18.01;75.10;100408.78;15480609;28;20070;-47
2023/07/30 00:19:49;;;;;;;9.27;6.97;;;;;;;18.04;73.77;100407.44;15497355;28;20047;-50
2023/07/30 00:27:23;;;;;;;7.30;6.32;;;;;;;17.88;73.97;100401.16;15480168;28;20042;-47
2023/07/30 00:34:56;;;;;;;10.70;6.43;;;;;;;17.81;73.78;100387.84;15471716;28;20348;-48
2023/07/30 00:42:31;;;;;;;7.72;6.88;;;;;;;17.50;73.53;100343.44;15484119;28;20493;-51
2023/07/30 00:50:05;;;;;;;9.43;6.10;;;;;;;17.62;73.85;100372.25;15453975;28;20064;-49
2023/07/30 00:57:40;;;;;;;10.18;6.03;;;;;;;17.41;73.65;100379.50;15493507;28;20479;-46
2023/07/30 01:05:13;;;;;;;8.95;7.18;;;;;;;17.29;74.83;100383.22;15477650;28;20155;-48
2023/07/30 01:12:48;;;;;;;10.68;8.23;;;;;;;17.24;74.98;100391.34;15475665;28;20526;-52
2023/07/30 01:20:22;;;;;;;8.63;7.15;;;;;;;17.27;74.08;100398.16;15476918;28;20054;-47
2023/07/30 01:28:00;;;;;;;8.05;6.55;;;;;;;17.17;75.33;100403.50;15470223;28;20039;-50
2023/07/30 01:35:37;;;;;;;8.60;6.38;;;;;;;17.24;74.21;100404.09;15477290;28;20042;-52
2023/07/30 01:43:12;;;;;;;10.30;5.97;;;;;;;17.09;73.81;100411.06;15490607;28;20256;-47
2023/07/30 01:50:47;;;;;;;8.88;6.80;;;;;;;17.16;73.72;100400.00;15490714;28;20042;-53
2023/07/30 01:58:21;;;;;;;7.63;6.35;;;;;;;16.93;73.89;100412.03;15474134;28;20038;-52
2023/07/30 02:05:54;;;;;;;8.77;6.35;;;;;;;16.82;73.83;100423.88;15473933;28;20046;-51
2023/07/30 02:13:28;;;;;;;6.60;5.68;;;;;;;16.77;73.65;100419.22;15483635;28;20050;-49
2023/07/30 02:21:01;;;;;;;7.00;6.10;;;;;;;16.64;74.42;100429.66;15472851;28;20464;-51
2023/07/30 02:28:36;;;;;;;8.05;6.90;;;;;;;16.46;75.98;100438.97;15488297;28;20050;-49
2023/07/30 02:36:08;;;;;;;9.77;7.10;;;;;;;16.69;75.13;100427.78;15488000;28;20101;-48
2023/07/30 02:43:44;;;;;;;7.75;6.90;;;;;;;16.71;74.17;100431.06;15483247;28;20050;-52
2023/07/30 02:51:16;;;;;;;8.32;7.45;;;;;;;16.69;74.07;100433.22;15488181;28;20129;-47
2023/07/30 02:58:53;;;;;;;8.32;7.53;;;;;;;16.58;74.36;100445.84;15488282;28;20499;-47
2023/07/30 03:06:33;;;;;;;8.45;7.25;;;;;;;16.57;74.54;100435.28;15501402;28;20046;-51
2023/07/30 03:14:07;;;;;;;7.93;7.20;;;;;;;16.52;74.53;100451.50;15464979;28;20054;-47
2023/07/30 03:21:40;;;;;;;13.23;8.50;;;;;;;16.34;74.56;100452.69;15469792;28;20043;-49
2023/07/30 03:29:15;;;;;;;12.93;8.07;;;;;;;16.52;74.60;100456.91;15463700;28;20157;-46
2023/07/30 03:36:49;;;;;;;8.60;7.60;;;;;;;16.65;74.19;100464.63;15465414;28;20356;-49
2023/07/30 03:44:26;;;;;;;11.38;7.80;;;;;;;16.61;75.13;100463.50;15469297;28;20074;-47
2023/07/30 03:52:00;;;;;;;10.20;9.20;;;;;;;16.40;75.66;100467.09;15465870;28;20038;-52
2023/07/30 03:59:36;;;;;;;11.93;9.95;;;;;;;16.65;74.58;100480.09;15478619;28;20109;-48
2023/07/30 04:07:09;;;;;;;11.02;9.75;;;;;;;16.46;75.56;100485.84;15484166;28;20457;-49
2023/07/30 04:14:43;;;;;;;10.43;9.43;;;;;;;16.79;74.55;100478.63;15478937;28;20459;-51
2023/07/30 04:22:16;;;;;;;10.57;9.52;;;;;;;16.62;75.10;100486.00;15479814;28;20526;-49
2023/07/30 04:29:51;;;;;;;11.30;10.15;;;;;;;16.72;75.71;100456.31;15479054;28;20399;-52
2023/07/30 04:37:23;;;;;;;11.07;9.98;;;;;;;16.85;75.14;100488.41;15494261;28;20053;-50
2023/07/30 04:45:00;;;;;;;12.38;11.10;;;;;;;17.08;75.48;100488.06;15494690;28;20511;-49
2023/07/30 04:52:34;;;;;;;11.90;10.68;;;;;;;17.08;75.82;100504.34;15471456;28;20084;-50
2023/07/30 05:00:09;;;;;;;;;;;;;;;17.09;75.87;100486.16;15492576;28;20039;-48
2023/07/30 05:07:42;;;;;;;12.18;10.98;;;;;;;17.34;75.81;100489.06;15488249;28;19981;-49
2023/07/30 05:15:17;;;;;;;10.57;9.68;;;;;;;17.66;75.29;100487.34;15494237;28;20517;-55
2023/07/30 05:22:50;;;;;;;10.48;9.48;;;;;;;17.41;76.61;100493.44;15487407;28;20121;-57
2023/07/30 05:30:25;;;;;;;11.20;8.98;;;;;;;17.92;75.13;100485.63;15493604;28;20138;-52
2023/07/30 05:37:57;;;;;;;10.25;8.57;;;;;;;18.13;74.98;100484.59;15492565;28;20073;-52
2023/07/30 05:45:32;;;;;;;9.63;7.63;;;;;;;18.13;75.55;100478.34;15493261;28;20456;-53
2023/07/30 05:53:05;;;;;;;6.93;6.28;;;;;;;18.18;75.32;100489.22;15492889;28;20042;-53
2023/07/30 06:00:39;;;;;;;;;;;;;;;18.35;74.72;100485.22;15475483;28;20061;-53
2023/07/30 06:08:12;;;;;;;7.28;6.50;;;;;;;18.76;74.20;100485.31;15490428;28;20016;-55
2023/07/30 06:15:47;;;;;;;6.20;4.93;;;;;;;18.69;73.33;100484.75;15489355;28;20049;-54
2023/07/30 06:23:20;;;;;;;7.07;5.47;;;;;;;19.38;72.16;100489.63;15490491;28;20408;-53
2023/07/30 06:31:00;;;;;;;6.78;5.10;;;;;;;19.14;73.05;100501.38;15484216;28;20511;-53
2023/07/30 06:38:37;;;;;;;6.03;4.85;;;;;;;19.27;72.49;100492.66;15464395;28;20051;-53
2023/07/30 06:46:11;;;;;;;7.20;4.88;;;;;;;19.74;71.75;100495.03;15472507;28;20440;-53
2023/07/30 06:53:44;;;;;;;4.53;3.97;;;;;;;20.06;71.73;100502.81;15489362;28;20042;-54
2023/07/30 07:01:18;;;;;;;6.75;4.15;;;;;;;20.41;69.86;100489.28;15478525;28;20050;-56
2023/07/30 07:08:51;;;;;;;3.85;3.45;;;;;;;20.77;69.48;100487.97;15487180;28;20042;-55
2023/07/30 07:16:25;;;;;;;4.60;3.00;;;;;;;20.71;68.28;100485.59;15524482;28;20050;-54
2023/07/30 07:23:58;;;;;;;4.00;3.00;;;;;;;21.35;65.31;100482.56;15511392;28;20141;-55
2023/07/30 07:31:32;;;;;;;6.80;2.80;;;;;;;21.83;64.41;100479.88;15486854;28;20050;-57
2023/07/30 07:39:05;;;;;;;5.35;2.85;;;;;;;21.76;64.54;100486.78;15441820;28;20102;-57
2023/07/30 07:46:41;;;;;;;5.55;2.67;;;;;;;22.06;63.60;100474.69;15476225;28;20050;-55
2023/07/30 07:54:14;;;;;;;4.32;2.63;;;;;;;21.53;62.89;100488.41;15474191;28;20522;-54
2023/07/30 08:01:48;;;;;;;5.90;2.88;;;;;;;21.96;61.31;100493.94;15485803;28;20208;-58
2023/07/30 08:09:22;;;;;;;2.58;2.10;;;;;;;22.51;62.03;100495.13;15469453;28;20109;-57
2023/07/30 08:16:57;;;;;;;6.00;2.45;;;;;;;21.43;61.93;100497.53;15447281;28;20051;-56
2023/07/30 08:24:30;;;;;;;4.38;2.85;;;;;;;22.12;62.01;100496.22;15503612;28;20108;-57
2023/07/30 08:32:05;;;;;;;5.05;2.80;;;;;;;22.66;59.21;100483.97;15455266;28;20173;-58
2023/07/30 08:39:38;;;;;;;3.47;2.20;;;;;;;22.51;57.75;100486.94;15483881;28;20039;-58
2023/07/30 08:47:13;;;;;;;3.90;2.50;;;;;;;22.36;56.53;100496.16;15494336;28;20365;-57
2023/07/30 08:54:49;;;;;;;4.60;2.58;;;;;;;22.57;57.28;100493.97;15493144;28;20046;-56
2023/07/30 09:02:31;;;;;;;4.97;2.60;;;;;;;23.61;54.46;100487.28;15480626;28;20425;-58
2023/07/30 09:10:04;;;;;;;5.60;2.20;;;;;;;22.69;55.34;100493.50;15452780;28;20078;-58
2023/07/30 09:17:39;;;;;;;3.17;1.90;;;;;;;22.44;53.77;100500.16;15507021;28;20353;-57
2023/07/30 09:25:16;;;;;;;4.75;2.47;;;;;;;22.95;54.28;100499.44;15493128;28;20069;-54
2023/07/30 09:32:52;;;;;;;3.42;1.98;;;;;;;22.12;56.22;100500.88;15478280;28;20108;-58
2023/07/30 09:40:34;;;;;;;5.18;2.20;;;;;;;22.41;52.32;100517.16;15486934;28;20101;-59
2023/07/30 09:48:09;;;;;;;7.38;2.00;;;;;;;23.98;51.98;100512.91;15472305;28;20036;-60
2023/07/30 09:55:41;;;;;;;5.07;2.10;;;;;;;24.70;48.30;100509.44;15487929;28;20050;-60
2023/07/30 10:03:16;;;;;;;3.97;1.88;;;;;;;25.11;46.83;100512.03;15471520;28;20074;-58
2023/07/30 10:10:51;;;;;;;4.03;1.70;;;;;;;24.89;46.83;100507.31;15488918;28;20034;-60
2023/07/30 10:18:33;;;;;;;5.00;2.00;;;;;;;24.83;48.99;100508.56;15478843;28;20085;-60
2023/07/30 10:26:11;;;;;;;4.90;2.20;;;;;;;23.83;47.73;100507.75;15487904;28;20416;-60
2023/07/30 10:33:48;;;;;;;4.32;2.17;;;;;;;23.55;48.77;100515.91;15446442;28;20034;-60
2023/07/30 10:41:22;;;;;;;4.57;1.75;;;;;;;24.82;46.00;100512.44;15478151;28;20474;-60
2023/07/30 10:48:56;;;;;;;5.10;1.90;;;;;;;24.54;45.89;100513.66;15486487;28;20263;-60
2023/07/30 10:56:30;;;;;;;6.72;1.80;;;;;;;23.59;47.12;100518.84;15484940;28;20108;-60
2023/07/30 11:04:09;;;;;;;4.07;1.63;;;;;;;25.27;45.89;100495.13;15462457;28;20210;-59
2023/07/30 11:11:42;;;;;;;5.90;1.70;;;;;;;25.91;43.54;100506.63;15451315;28;20484;-58
2023/07/30 11:19:16;;;;;;;6.70;1.95;;;;;;;26.12;42.76;100495.84;15468676;28;20133;-57
2023/07/30 11:26:58;;;;;;;4.60;1.83;;;;;;;25.26;45.63;100499.84;15488176;23;20443;-54
2023/07/30 11:34:35;;;;;;;3.87;1.87;;;;;;;25.66;46.36;100489.69;15414404;28;20070;-54
2023/07/30 11:42:09;;;;;;;3.85;1.70;;;;;;;24.89;42.26;100490.03;15432042;28;20047;-52
2023/07/30 11:49:43;;;;;;;5.32;2.03;;;;;;;25.65;40.96;100496.31;15431962;28;20121;-54
2023/07/30 11:57:16;;;;;;;6.28;1.88;;;;;;;26.00;39.89;100488.19;15431852;28;20058;-51
2023/07/30 12:04:50;;;;;;;4.55;1.80;;;;;;;25.59;40.30;100483.00;15431769;28;20551;-51
2023/07/30 12:12:26;;;;;;;4.43;1.65;;;;;;;24.83;40.13;100496.78;15444613;28;20058;-55
2023/07/30 12:20:06;;;;;;;5.55;1.90;;;;;;;24.33;43.45;100492.13;15431895;28;20039;-53
2023/07/30 12:27:39;;;;;;;4.65;2.13;;;;;;;26.24;42.23;100490.50;15430208;28;20132;-57
2023/07/30 12:35:13;;;;;;;3.80;2.20;;;;;;;26.54;38.58;100485.25;15430445;28;20051;-55
2023/07/30 12:42:46;;;;;;;3.65;1.90;;;;;;;25.47;39.15;100482.81;15441131;28;20416;-54
2023/07/30 12:50:20;;;;;;;6.97;2.00;;;;;;;25.83;40.77;100477.94;15428233;28;20043;-52
2023/07/30 12:57:53;;;;;;;3.75;2.00;;;;;;;24.68;41.00;100476.81;15418639;28;20411;-52
2023/07/30 13:05:27;;;;;;;3.15;2.00;;;;;;;24.87;41.10;100476.63;15438794;28;20058;-53
2023/07/30 13:13:00;;;;;;;5.82;2.13;;;;;;;24.82;41.46;100473.19;15460687;28;20113;-53
2023/07/30 13:20:34;;;;;;;3.90;2.00;;;;;;;24.40;39.08;100462.38;15500292;28;20097;-53
2023/07/30 13:28:08;;;;;;;4.28;2.00;;;;;;;23.98;39.23;100455.34;15482313;28;20599;-52
2023/07/30 13:35:43;;;;;;;3.72;1.80;;;;;;;23.79;40.26;100449.16;15499858;28;20058;-50
2023/07/30 13:43:16;;;;;;;4.78;2.15;;;;;;;23.97;39.21;100461.94;15499840;28;20499;-50
2023/07/30 13:50:50;;;;;;;4.03;1.40;;;;;;;23.82;40.31;100474.00;15498296;28;20046;-52
2023/07/30 13:58:23;;;;;;;4.45;1.10;;;;;;;23.52;39.68;100483.63;15496515;28;20074;-54
2023/07/30 14:05:57;;;;;;;2.75;1.08;;;;;;;23.20;39.77;100483.66;15497283;28;20046;-53
2023/07/30 14:13:30;;;;;;;1.92;1.13;;;;;;;23.27;40.90;100484.91;15497295;28;20058;-51
2023/07/30 14:21:08;;;;;;;5.20;1.20;;;;;;;23.12;43.10;100496.94;15479353;28;20077;-51
2023/07/30 14:28:41;;;;;;;4.00;1.40;;;;;;;21.78;46.24;100537.31;15459290;28;20039;-51
2023/07/30 14:36:15;;;;;;;6.38;1.33;;;;;;;20.08;54.95;100541.50;15447139;28;20513;-52
2023/07/30 14:43:48;;;;;;;4.50;1.80;;;;;;;19.55;60.34;100584.63;15494698;28;20097;-50
2023/07/30 14:51:23;;;;;;;5.63;2.20;;;;;;;19.10;66.71;100564.47;15493327;28;20058;-50
2023/07/30 14:58:56;;;;;;;5.38;2.22;;;;;;;18.74;69.37;100547.28;15493188;28;20051;-53
2023/07/30 15:06:31;;;;;;;7.93;2.20;;;;;;;18.87;70.87;100562.28;15495181;28;20042;-52
2023/07/30 15:14:04;;;;;;;5.75;2.60;;;;;;;19.08;72.11;100533.22;15495963;28;20057;-50
2023/07/30 15:21:39;;;;;;;5.45;2.00;;;;;;;19.71;70.56;100544.59;15494361;28;20507;-50
2023/07/30 15:29:12;;;;;;;3.67;1.98;;;;;;;19.58;69.12;100532.34;15492937;28;20046;-52
2023/07/30 15:36:46;;;;;;;3.78;1.67;;;;;;;19.60;66.26;100519.31;15493558;28;20074;-50
2023/07/30 15:44:19;;;;;;;2.97;1.55;;;;;;;19.76;65.79;100486.56;15493287;28;20073;-53
2023/07/30 15:51:54;;;;;;;5.28;1.70;;;;;;;19.94;65.26;100515.13;15492923;28;20062;-50
2023/07/30 15:59:27;;;;;;;3.85;1.55;;;;;;;20.16;66.27;100523.75;15493235;28;20050;-53
2023/07/30 16:07:03;;;;;;;3.28;1.40;;;;;;;20.35;64.36;100521.22;15492907;28;20053;-49
2023/07/30 16:14:37;;;;;;;3.58;1.50;;;;;;;20.33;62.88;100509.75;15444659;28;20054;-49
2023/07/30 16:22:11;;;;;;;2.55;1.60;;;;;;;20.17;62.43;100487.22;15442787;28;20047;-51
2023/07/30 16:29:44;;;;;;;2.35;1.67;;;;;;;20.31;63.15;100537.31;15448385;28;20042;-50
2023/07/30 16:37:19;;;;;;;4.18;1.88;;;;;;;20.29;61.90;100536.78;15425766;28;20560;-50
2023/07/30 16:44:52;;;;;;;3.30;1.65;;;;;;;19.92;63.65;100542.66;15441453;28;20485;-49
2023/07/30 16:52:26;;;;;;;4.00;1.63;;;;;;;19.92;63.31;100541.84;15440316;28;20066;-49
2023/07/30 16:59:59;;;;;;;3.40;1.83;;;;;;;20.17;62.78;100549.09;15440250;28;20142;-55
2023/07/30 17:07:35;;;;;;;6.60;1.98;;;;;;;19.97;63.58;100556.25;15441178;28;20069;-49
2023/07/30 17:15:09;;;;;;;3.53;1.50;;;;;;;19.73;61.43;100523.38;15464466;28;20423;-55
2023/07/30 17:22:44;;;;;;;5.03;1.50;;;;;;;20.33;61.52;100564.28;15500387;28;20407;-50
2023/07/30 17:30:18;;;;;;;4.78;1.80;;;;;;;20.22;59.36;100568.97;15431066;23;20051;-48
2023/07/30 17:37:52;;;;;;;5.63;1.90;;;;;;;20.34;59.34;100577.66;15487213;28;20050;-50
2023/07/30 17:45:25;;;;;;;4.95;1.92;;;;;;;19.82;60.65;100586.25;15475981;28;20069;-55
2023/07/30 17:52:59;;;;;;;5.72;2.00;;;;;;;19.73;61.22;100585.19;15475654;28;20137;-54
2023/07/30 18:00:32;;;;;;;4.03;1.83;;;;;;;20.04;60.97;100605.81;15492144;28;20455;-53
2023/07/30 18:08:06;;;;;;;7.72;2.00;;;;;;;19.76;61.88;100603.69;15488762;28;20137;-53
2023/07/30 18:15:39;;;;;;;7.00;2.15;;;;;;;19.90;61.88;100606.66;15447536;28;20060;-49
2023/07/30 18:23:16;;;;;;;7.53;2.53;;;;;;;20.08;61.43;100595.16;15412915;28;20063;-52
2023/07/30 18:30:49;;;;;;;7.68;2.50;;;;;;;20.10;61.00;100606.63;15431633;28;20401;-51
2023/07/30 18:38:22;;;;;;;;;;;;;;;19.94;62.72;100622.19;15439196;28;20038;-50
2023/07/30 18:45:55;;;;;;;5.32;2.40;;;;;;;19.91;61.00;100619.19;15490522;28;19928;-52
2023/07/30 18:53:30;;;;;;;6.60;2.30;;;;;;;19.59;62.13;100629.28;15545795;28;20054;-56
2023/07/30 19:01:04;;;;;;;5.28;2.38;;;;;;;19.19;64.10;100654.56;15495267;28;20129;-49
2023/07/30 19:08:38;;;;;;;5.97;2.88;;;;;;;19.42;63.30;100666.03;15469922;28;20050;-50
2023/07/30 19:16:12;;;;;;;7.50;2.90;;;;;;;19.27;63.98;100686.69;15473743;28;20149;-49
2023/07/30 19:23:46;;;;;;;;;;;;;;;19.45;62.96;100690.00;15488752;28;20380;-54
2023/07/30 19:31:20;;;;;;;7.70;2.88;;;;;;;19.23;64.14;100684.78;15454089;28;20323;-52
2023/07/30 19:38:55;;;;;;;8.90;2.90;;;;;;;19.19;63.93;100713.59;15470271;28;20483;-48
2023/07/30 19:46:27;;;;;;;6.97;2.78;;;;;;;19.31;63.70;100715.00;15477001;28;20049;-47
2023/07/30 19:54:02;;;;;;;7.22;2.70;;;;;;;19.49;63.71;100732.75;15482229;28;20129;-48
2023/07/30 20:01:34;;;;;;;10.05;4.00;;;;;;;18.93;63.48;100739.88;15480620;28;20046;-52
2023/07/30 20:09:09;;;;;;;8.18;4.28;;;;;;;19.25;62.70;100735.09;15475730;28;20475;-52
2023/07/30 20:16:41;;;;;;;8.40;4.65;;;;;;;19.36;63.12;100730.53;15432572;28;20242;-53
2023/07/30 20:24:15;;;;;;;7.45;4.80;;;;;;;19.21;63.22;100742.19;15497064;28;20133;-50
2023/07/30 20:31:48;;;;;;;9.10;4.68;;;;;;;18.81;64.85;100745.56;15494906;28;20043;-52
2023/07/30 20:39:22;;;;;;;9.70;4.93;;;;;;;18.71;65.23;100756.41;15481921;28;20512;-53
2023/07/30 20:46:55;;;;;;;8.43;4.70;;;;;;;18.54;66.22;100775.56;15491447;28;20200;-51
2023/07/30 20:54:29;;;;;;;10.73;5.10;;;;;;;18.35;66.65;100778.69;15476904;28;20065;-50
2023/07/30 21:02:02;;;;;;;11.75;5.70;;;;;;;18.46;66.25;100778.75;15472011;28;20034;-54
2023/07/30 21:09:36;;;;;;;;;;;;;;;18.41;66.85;100786.88;15491740;28;20092;-51
2023/07/30 21:17:09;;;;;;;8.75;5.55;;;;;;;18.58;64.40;100796.53;15476012;28;19993;-47
2023/07/30 21:24:50;;;;;;;7.82;5.30;;;;;;;17.72;68.79;100812.91;15475682;28;20155;-54
2023/07/30 21:32:23;;;;;;;9.35;5.53;;;;;;;17.75;69.77;100820.53;15475271;28;20496;-52
2023/07/30 21:39:59;;;;;;;10.93;4.32;;;;;;;17.90;66.81;100816.34;15483664;28;20130;-51
2023/07/30 21:47:31;;;;;;;5.35;3.05;;;;;;;17.53;66.67;100817.84;15432789;28;20054;-51
2023/07/30 21:55:06;;;;;;;;;;;;;;;17.42;65.85;100807.13;15464893;28;20046;-47
2023/07/30 22:02:39;;;;;;;6.75;2.40;;;;;;;17.34;66.75;100790.22;15490188;28;19965;-48
2023/07/30 22:10:14;;;;;;;6.45;2.10;;;;;;;17.67;65.16;100774.00;15489547;28;20135;-48
2023/07/30 22:17:47;;;;;;;5.13;2.10;;;;;;;17.75;65.05;100779.00;15489409;28;20053;-52
2023/07/30 22:25:24;;;;;;;8.27;2.13;;;;;;;17.75;65.47;100766.25;15490421;28;20177;-51
2023/07/30 22:32:57;;;;;;;5.85;2.00;;;;;;;17.91;64.92;100756.34;15488823;28;20141;-50
2023/07/30 22:40:31;;;;;;;4.32;1.85;;;;;;;17.21;67.56;100754.53;15456754;28;20536;-51
2023/07/30 22:48:04;;;;;;;4.00;1.90;;;;;;;16.91;68.10;100761.22;15489641;28;20060;-50
2023/07/30 22:55:41;;;;;;;4.88;2.13;;;;;;;17.73;66.08;100768.41;15462238;28;20106;-55
2023/07/30 23:03:15;;;;;;;6.05;2.25;;;;;;;17.70;66.71;100777.03;15428685;28;20173;-51
2023/07/30 23:10:59;;;;;;;5.45;2.10;;;;;;;17.19;68.25;100771.03;15456354;28;20043;-54
2023/07/30 23:18:36;;;;;;;4.78;1.92;;;;;;;16.90;69.22;100756.88;15503019;28;20065;-54
2023/07/30 23:26:10;;;;;;;3.95;1.75;;;;;;;17.30;67.31;100753.84;15469910;28;20073;-50
2023/07/30 23:33:43;;;;;;;4.28;1.55;;;;;;;17.11;68.61;100746.25;15486153;28;20042;-52
2023/07/30 23:41:19;;;;;;;4.60;1.70;;;;;;;17.27;67.91;100738.06;15436565;28;20483;-53
2023/07/30 23:48:51;;;;;;;5.82;1.83;;;;;;;17.40;67.15;100728.69;15468726;28;20061;-49
2023/07/30 23:56:26;;;;;;;;;;;;;;;16.86;67.85;100719.66;15462138;28;20365;-54
